Time;durP1;ratioP1;P1;durP2;ratioP2;P2;SDS_P1;SDS_P2;PMS_P1;PMS_P2;Temp;Humidity;BMP_temperature;BMP_pressure;BME280_temperature;BME280_humidity;BME280_pressure;Samples;Min_cycle;Max_cycle;Signal;HPM_P1;HPM_P2
2021/05/15 04:02:38;;;;;;;35.65;20.27;;;9.70;99.90;;;;;;4962751;23;20623;-72
2021/05/15 04:05:05;;;;;;;37.35;21.05;;;9.70;99.90;;;;;;4933799;29;20301;-72
2021/05/15 04:07:32;;;;;;;47.13;20.80;;;9.70;99.90;;;;;;4935054;29;20217;-71
2021/05/15 04:09:58;;;;;;;34.13;19.45;;;9.70;99.90;;;;;;4934661;29;20301;-72
2021/05/15 04:12:29;;;;;;;33.20;19.48;;;9.70;99.90;;;;;;4934755;29;20281;-72
2021/05/15 04:15:03;;;;;;;37.58;18.27;;;9.80;99.90;;;;;;4934103;29;20552;-72
2021/05/15 04:17:30;;;;;;;41.67;21.35;;;9.80;99.90;;;;;;4935454;29;20213;-71
2021/05/15 04:19:57;;;;;;;37.50;20.08;;;9.80;99.90;;;;;;4934811;29;20276;-72
2021/05/15 04:22:24;;;;;;;37.03;20.02;;;9.80;99.90;;;;;;4934593;29;20225;-71
2021/05/15 04:24:50;;;;;;;34.90;19.50;;;9.80;99.90;;;;;;4934091;29;20238;-72
2021/05/15 04:27:17;;;;;;;40.72;19.42;;;9.80;99.90;;;;;;4935672;29;20218;-72
2021/05/15 04:29:44;;;;;;;37.08;19.15;;;9.80;99.90;;;;;;4933783;29;20289;-72
2021/05/15 04:32:11;;;;;;;37.78;19.80;;;9.80;99.90;;;;;;4934432;29;20237;-71
2021/05/15 04:34:37;;;;;;;35.22;19.50;;;9.80;99.90;;;;;;4934560;29;20623;-72
2021/05/15 04:37:04;;;;;;;36.33;20.23;;;9.80;99.90;;;;;;4934898;29;20607;-71
2021/05/15 04:39:33;;;;;;;41.28;19.05;;;9.90;99.90;;;;;;4933817;29;20574;-71
2021/05/15 04:42:00;;;;;;;35.38;19.83;;;9.90;99.90;;;;;;4935024;29;20228;-71
2021/05/15 04:44:28;;;;;;;33.80;20.60;;;9.90;99.90;;;;;;4934730;29;20226;-72
2021/05/15 04:46:54;;;;;;;36.50;19.67;;;9.90;99.90;;;;;;4934045;29;20493;-71
2021/05/15 04:49:20;;;;;;;35.10;19.30;;;10.00;99.90;;;;;;4934605;29;20218;-71
2021/05/15 04:51:46;;;;;;;40.05;19.50;;;10.00;99.90;;;;;;4934637;29;20233;-72
2021/05/15 04:54:13;;;;;;;34.88;18.27;;;10.00;99.90;;;;;;4934307;29;20289;-72
2021/05/15 04:56:40;;;;;;;29.70;19.17;;;10.00;99.90;;;;;;4934559;29;20706;-72
2021/05/15 04:59:07;;;;;;;35.80;19.50;;;10.10;99.90;;;;;;4935135;29;20253;-71
2021/05/15 05:01:33;;;;;;;30.42;18.38;;;10.10;99.90;;;;;;4934160;29;20663;-72
2021/05/15 05:04:02;;;;;;;38.17;18.92;;;10.10;99.90;;;;;;4935053;29;20233;-72
2021/05/15 05:06:29;;;;;;;29.95;17.15;;;10.10;99.90;;;;;;4934377;29;20218;-71
2021/05/15 05:08:55;;;;;;;29.48;18.10;;;10.10;99.90;;;;;;4934261;29;20202;-72
2021/05/15 05:11:22;;;;;;;36.70;17.90;;;10.20;99.90;;;;;;4934542;29;20221;-71
2021/05/15 05:13:48;;;;;;;33.03;18.40;;;10.20;99.90;;;;;;4934879;29;20210;-72
2021/05/15 05:16:14;;;;;;;35.13;18.52;;;10.20;99.90;;;;;;4934734;29;20206;-72
2021/05/15 05:18:40;;;;;;;32.47;18.10;;;10.20;99.90;;;;;;4934973;29;20277;-71
2021/05/15 05:21:07;;;;;;;30.23;18.05;;;10.20;99.90;;;;;;4934357;29;20241;-72
2021/05/15 05:23:33;;;;;;;36.38;18.17;;;10.30;99.90;;;;;;4933872;29;20232;-72
2021/05/15 05:25:59;;;;;;;30.48;16.98;;;10.30;99.90;;;;;;4934130;29;20213;-71
2021/05/15 05:28:32;;;;;;;31.50;18.85;;;10.40;99.90;;;;;;4937014;29;20213;-71
2021/05/15 05:30:59;;;;;;;29.10;18.45;;;10.30;99.90;;;;;;4937698;29;20221;-71
2021/05/15 05:33:25;;;;;;;24.27;16.58;;;10.30;99.90;;;;;;4937905;29;20237;-74
2021/05/15 05:35:51;;;;;;;30.90;15.57;;;10.30;99.90;;;;;;4937277;29;20202;-72
2021/05/15 05:38:17;;;;;;;37.03;17.90;;;10.40;99.90;;;;;;4938359;29;20214;-72
2021/05/15 05:40:44;;;;;;;31.10;18.50;;;10.40;99.90;;;;;;4937729;29;20706;-72
2021/05/15 05:43:10;;;;;;;28.63;17.15;;;10.40;99.90;;;;;;4918660;29;20262;-72
2021/05/15 05:45:37;;;;;;;25.73;16.45;;;10.40;99.90;;;;;;4932317;29;20213;-72
2021/05/15 05:48:04;;;;;;;30.38;18.77;;;10.40;99.90;;;;;;4938383;29;20682;-72
2021/05/15 05:50:30;;;;;;;28.00;18.15;;;10.50;99.90;;;;;;4937222;29;20230;-72
2021/05/15 05:52:56;;;;;;;31.63;17.17;;;10.50;99.90;;;;;;4937433;29;20229;-72
2021/05/15 05:55:23;;;;;;;28.20;16.63;;;10.60;99.90;;;;;;4936831;29;20213;-71
2021/05/15 05:57:49;;;;;;;26.88;16.27;;;10.60;99.90;;;;;;4938241;29;20631;-72
2021/05/15 06:00:16;;;;;;;27.17;16.40;;;10.60;99.90;;;;;;4935479;29;20209;-72
2021/05/15 06:02:43;;;;;;;30.48;17.27;;;10.60;99.90;;;;;;4937798;29;20623;-71
2021/05/15 06:05:11;;;;;;;27.05;18.27;;;10.60;99.90;;;;;;4936208;29;20625;-71
2021/05/15 06:07:37;;;;;;;33.33;16.75;;;10.70;99.90;;;;;;4937417;29;20209;-71
2021/05/15 06:10:04;;;;;;;25.38;17.05;;;10.70;99.90;;;;;;4936572;29;20217;-72
2021/05/15 06:12:30;;;;;;;25.73;17.10;;;10.80;99.90;;;;;;4937315;29;20233;-71
2021/05/15 06:14:56;;;;;;;27.63;17.27;;;10.80;99.90;;;;;;4936732;29;20205;-72
2021/05/15 06:17:23;;;;;;;22.02;14.18;;;10.80;99.90;;;;;;4936698;29;20217;-71
2021/05/15 06:19:51;;;;;;;24.70;15.93;;;10.90;99.90;;;;;;4935604;29;20210;-71
2021/05/15 06:22:17;;;;;;;27.85;17.05;;;10.80;99.90;;;;;;4935795;29;20304;-71
2021/05/15 06:24:43;;;;;;;27.38;16.85;;;10.80;99.90;;;;;;4936449;29;20233;-72
2021/05/15 06:27:09;;;;;;;36.25;17.65;;;10.90;99.90;;;;;;4936832;29;20209;-72
2021/05/15 06:29:36;;;;;;;25.52;16.38;;;11.00;99.90;;;;;;4936988;29;20291;-72
2021/05/15 06:32:02;;;;;;;27.88;16.23;;;11.00;99.90;;;;;;4936390;29;20717;-76
2021/05/15 06:34:28;;;;;;;29.70;18.67;;;11.10;99.90;;;;;;4936700;29;20210;-73
2021/05/15 06:36:55;;;;;;;24.45;15.60;;;11.10;99.90;;;;;;4936623;29;20218;-72
2021/05/15 06:39:22;;;;;;;23.35;15.68;;;11.10;99.90;;;;;;4936512;29;20210;-72
2021/05/15 06:41:48;;;;;;;20.23;15.55;;;11.20;99.90;;;;;;4936440;29;20304;-72
2021/05/15 06:44:14;;;;;;;22.70;14.45;;;11.20;99.90;;;;;;4936357;29;20697;-72
2021/05/15 06:46:41;;;;;;;22.77;14.88;;;11.30;99.90;;;;;;4935845;29;20237;-73
2021/05/15 06:49:07;;;;;;;26.75;14.63;;;11.40;99.90;;;;;;4925868;29;20226;-73
2021/05/15 06:51:33;;;;;;;21.75;14.57;;;11.30;99.90;;;;;;4935836;29;20284;-72
2021/05/15 06:54:00;;;;;;;23.83;15.80;;;11.40;99.90;;;;;;4935444;29;20198;-73
2021/05/15 06:56:26;;;;;;;25.25;16.05;;;11.50;99.90;;;;;;4935982;29;20224;-73
2021/05/15 06:58:53;;;;;;;20.70;14.00;;;11.60;99.90;;;;;;4935913;29;20202;-73
2021/05/15 07:01:19;;;;;;;28.50;17.23;;;11.60;99.90;;;;;;4936252;29;20242;-73
2021/05/15 07:03:45;;;;;;;21.17;14.20;;;11.70;99.90;;;;;;4935878;29;20589;-73
2021/05/15 07:06:11;;;;;;;20.90;15.05;;;11.70;99.90;;;;;;4936192;29;20267;-73
2021/05/15 07:08:37;;;;;;;19.75;14.65;;;11.70;99.90;;;;;;4936292;29;20213;-73
2021/05/15 07:11:04;;;;;;;22.70;15.20;;;11.80;99.90;;;;;;4936227;29;20293;-73
2021/05/15 07:13:30;;;;;;;21.70;14.10;;;11.90;99.90;;;;;;4935299;29;20572;-73
2021/05/15 07:15:57;;;;;;;20.55;14.80;;;12.00;99.90;;;;;;4935688;29;20284;-73
2021/05/15 07:18:23;;;;;;;19.07;13.47;;;12.10;99.90;;;;;;4935514;29;20213;-74
2021/05/15 07:20:49;;;;;;;22.03;13.97;;;12.20;99.90;;;;;;4934931;29;20497;-73
2021/05/15 07:23:16;;;;;;;17.73;13.90;;;12.20;99.90;;;;;;4934786;29;20461;-73
2021/05/15 07:25:42;;;;;;;19.73;13.70;;;12.30;99.90;;;;;;4935289;29;20518;-74
2021/05/15 07:28:09;;;;;;;21.67;15.10;;;12.30;99.90;;;;;;4935434;29;20470;-72
2021/05/15 07:30:35;;;;;;;22.63;15.33;;;12.30;99.90;;;;;;4935172;29;20481;-72
2021/05/15 07:33:01;;;;;;;22.10;13.67;;;12.50;99.90;;;;;;4935401;29;20945;-72
2021/05/15 07:35:28;;;;;;;16.63;11.97;;;12.70;99.90;;;;;;4933922;29;20520;-71
2021/05/15 07:37:54;;;;;;;19.07;12.77;;;13.10;99.90;;;;;;4935144;29;20871;-71
2021/05/15 07:40:20;;;;;;;16.07;12.47;;;13.20;99.90;;;;;;4934786;29;20477;-71
2021/05/15 07:42:47;;;;;;;16.50;12.03;;;13.40;99.90;;;;;;4934701;29;20469;-72
2021/05/15 07:45:15;;;;;;;17.37;12.67;;;13.50;99.90;;;;;;4934628;29;20492;-72
2021/05/15 07:47:41;;;;;;;18.33;14.63;;;13.50;99.90;;;;;;4934713;29;20465;-72
2021/05/15 07:50:09;;;;;;;19.47;13.40;;;13.40;99.90;;;;;;4933806;29;20465;-72
2021/05/15 07:52:35;;;;;;;35.00;19.77;;;13.40;99.90;;;;;;4934498;29;20462;-72
2021/05/15 07:55:02;;;;;;;20.97;15.13;;;13.40;99.90;;;;;;4934579;29;20572;-72
2021/05/15 07:57:28;;;;;;;24.83;13.40;;;13.40;99.90;;;;;;4934834;29;20488;-72
2021/05/15 07:59:54;;;;;;;16.53;12.70;;;13.30;99.90;;;;;;4934566;29;20509;-72
2021/05/15 08:02:21;;;;;;;23.90;15.43;;;13.40;99.90;;;;;;4932922;29;20547;-71
2021/05/15 08:04:48;;;;;;;15.13;12.80;;;13.80;99.90;;;;;;4929609;29;20489;-72
2021/05/15 08:07:14;;;;;;;22.70;13.47;;;14.20;99.90;;;;;;4934593;29;20462;-72
2021/05/15 08:09:40;;;;;;;17.23;12.67;;;14.60;99.90;;;;;;4934180;29;20553;-72
2021/05/15 08:12:07;;;;;;;16.93;13.03;;;14.60;99.90;;;;;;4934253;29;20906;-72
2021/05/15 08:14:33;;;;;;;15.93;12.03;;;14.50;99.90;;;;;;4934084;29;20473;-72
2021/05/15 08:16:59;;;;;;;16.40;12.23;;;14.50;99.90;;;;;;4934718;29;21013;-72
2021/05/15 08:19:26;;;;;;;15.10;12.23;;;14.70;99.90;;;;;;4934099;29;20469;-73
2021/05/15 08:21:53;;;;;;;19.33;12.17;;;15.00;99.90;;;;;;4934621;29;20485;-73
2021/05/15 08:24:20;;;;;;;16.60;12.00;;;15.20;99.90;;;;;;4933968;29;20548;-72
2021/05/15 08:26:46;;;;;;;14.53;11.27;;;15.40;99.90;;;;;;4934839;29;20461;-72
2021/05/15 08:29:14;;;;;;;12.90;11.47;;;15.40;99.90;;;;;;4934481;29;20592;-73
2021/05/15 08:31:41;;;;;;;14.67;13.17;;;15.40;99.90;;;;;;4935102;29;20978;-73
2021/05/15 08:34:08;;;;;;;13.10;11.17;;;15.50;99.90;;;;;;4933952;29;20466;-72
2021/05/15 08:36:35;;;;;;;15.60;11.50;;;15.50;99.90;;;;;;4934203;29;20953;-73
2021/05/15 08:39:01;;;;;;;14.63;12.50;;;15.30;99.90;;;;;;4934967;29;20473;-73
2021/05/15 08:41:27;;;;;;;12.83;11.40;;;15.30;99.90;;;;;;4933723;29;20481;-72
2021/05/15 08:43:54;;;;;;;23.40;18.73;;;15.20;99.90;;;;;;4934724;29;20799;-73
2021/05/15 08:46:22;;;;;;;15.80;12.43;;;15.20;99.90;;;;;;4934557;29;20544;-73
2021/05/15 08:48:50;;;;;;;43.47;29.70;;;15.20;99.90;;;;;;4931782;29;20512;-73
2021/05/15 08:51:16;;;;;;;14.60;12.27;;;15.10;99.90;;;;;;4936884;29;20473;-73
2021/05/15 08:53:43;;;;;;;17.63;12.83;;;15.10;99.90;;;;;;4933887;29;20612;-74
2021/05/15 08:56:10;;;;;;;39.63;26.80;;;15.10;99.90;;;;;;4929395;29;20465;-70
2021/05/15 08:58:37;;;;;;;13.47;12.13;;;15.20;99.90;;;;;;4932965;29;20461;-71
2021/05/15 09:01:05;;;;;;;16.90;13.73;;;15.30;99.90;;;;;;4934958;29;20489;-73
2021/05/15 09:03:33;;;;;;;14.53;11.20;;;15.40;99.90;;;;;;4938070;29;20496;-73
2021/05/15 09:05:59;;;;;;;20.30;16.70;;;15.50;99.90;;;;;;4938069;29;20480;-71
2021/05/15 09:08:25;;;;;;;22.50;14.53;;;15.50;99.90;;;;;;4934977;29;20940;-72
2021/05/15 09:10:53;;;;;;;27.67;18.83;;;15.40;99.90;;;;;;4937621;29;20485;-74
2021/05/15 09:13:20;;;;;;;31.60;22.63;;;15.40;99.90;;;;;;4939285;29;20541;-73
2021/05/15 09:15:49;;;;;;;40.50;27.77;;;15.20;99.90;;;;;;4941692;29;20571;-74
2021/05/15 09:18:18;;;;;;;20.90;15.10;;;15.20;99.90;;;;;;4938289;29;20480;-73
2021/05/15 09:20:45;;;;;;;14.90;11.10;;;15.20;99.90;;;;;;4936466;29;20485;-74
2021/05/15 09:23:17;;;;;;;16.73;12.77;;;15.30;99.90;;;;;;4936399;29;20472;-72
2021/05/15 09:25:44;;;;;;;20.33;14.67;;;15.30;99.90;;;;;;4937720;29;20465;-73
2021/05/15 09:28:12;;;;;;;15.60;11.27;;;15.40;99.90;;;;;;4937763;29;20473;-73
2021/05/15 09:30:39;;;;;;;13.23;11.70;;;15.40;99.90;;;;;;4936503;29;20485;-73
2021/05/15 09:33:27;;;;;;;17.80;11.80;;;15.50;99.90;;;;;;4936633;29;20465;-73
2021/05/15 09:35:53;;;;;;;13.30;10.60;;;15.50;99.90;;;;;;4930695;29;20468;-74
2021/05/15 09:38:19;;;;;;;14.20;11.17;;;15.50;99.90;;;;;;4925411;29;20482;-73
2021/05/15 09:40:45;;;;;;;13.70;10.40;;;15.70;99.90;;;;;;4936095;29;20489;-74
2021/05/15 09:43:13;;;;;;;13.67;12.20;;;15.80;99.90;;;;;;4932288;29;20466;-75
2021/05/15 09:45:43;;;;;;;11.23;10.10;;;15.80;99.90;;;;;;4918536;29;20462;-74
2021/05/15 09:48:34;;;;;;;10.67;9.57;;;15.90;99.90;;;;;;4936371;29;20510;-74
2021/05/15 09:50:59;;;;;;;10.70;9.07;;;16.00;99.90;;;;;;4936750;29;20485;-74
2021/05/15 09:53:25;;;;;;;12.00;9.80;;;16.10;99.90;;;;;;4936728;29;20544;-74
2021/05/15 09:55:53;;;;;;;13.13;9.33;;;16.00;99.90;;;;;;4937706;29;20457;-75
2021/05/15 09:58:20;;;;;;;12.60;9.13;;;15.90;99.90;;;;;;4937772;29;20490;-74
2021/05/15 10:00:49;;;;;;;13.87;10.00;;;16.00;99.90;;;;;;4937048;29;20581;-73
2021/05/15 10:03:20;;;;;;;10.77;9.57;;;16.30;99.90;;;;;;4937132;29;20466;-73
2021/05/15 10:05:56;;;;;;;10.47;9.47;;;16.40;99.90;;;;;;4935485;29;20894;-73
2021/05/15 10:08:23;;;;;;;11.73;10.63;;;16.30;99.90;;;;;;4938472;29;20790;-73
2021/05/15 10:10:51;;;;;;;13.10;9.33;;;16.20;99.90;;;;;;4927492;29;20483;-74
2021/05/15 10:13:17;;;;;;;13.20;10.03;;;16.30;99.90;;;;;;4935686;29;20594;-74
2021/05/15 10:15:45;;;;;;;10.40;9.30;;;16.30;99.90;;;;;;4937145;29;20469;-74
2021/05/15 10:18:12;;;;;;;10.00;8.67;;;16.30;99.90;;;;;;4936259;29;20462;-73
2021/05/15 10:20:40;;;;;;;9.77;8.60;;;16.30;99.90;;;;;;4945276;28;20485;-73
2021/05/15 10:23:16;;;;;;;9.43;8.53;;;16.20;99.90;;;;;;4936477;29;20775;-73
2021/05/15 10:25:42;;;;;;;11.70;8.20;;;16.30;99.90;;;;;;4936559;29;20549;-73
2021/05/15 10:28:09;;;;;;;10.23;8.67;;;16.20;99.90;;;;;;4936424;29;20466;-74
2021/05/15 10:30:36;;;;;;;8.93;8.03;;;16.10;99.90;;;;;;4936796;29;20485;-73
2021/05/15 10:33:09;;;;;;;11.43;9.87;;;16.10;99.90;;;;;;4927305;29;20475;-74
2021/05/15 10:35:40;;;;;;;12.13;8.30;;;16.20;99.90;;;;;;4918400;29;20514;-74
2021/05/15 10:38:10;;;;;;;8.70;7.90;;;16.20;99.90;;;;;;4933983;29;20837;-74
2021/05/15 10:40:44;;;;;;;7.47;6.77;;;16.40;99.90;;;;;;4936446;29;20668;-74
2021/05/15 10:43:11;;;;;;;8.50;7.70;;;16.40;99.90;;;;;;4936236;29;20465;-73
2021/05/15 10:45:39;;;;;;;8.50;7.80;;;16.40;99.90;;;;;;4936003;29;20485;-73
2021/05/15 10:48:22;;;;;;;9.40;8.43;;;16.50;99.90;;;;;;4936015;29;20466;-72
2021/05/15 10:50:53;;;;;;;9.67;8.77;;;16.70;99.90;;;;;;4934781;29;20489;-73
2021/05/15 10:53:24;;;;;;;9.00;8.20;;;16.80;99.90;;;;;;4935748;29;20461;-73
2021/05/15 10:56:13;;;;;;;13.13;9.57;;;16.90;99.90;;;;;;4936016;29;20470;-73
2021/05/15 10:58:41;;;;;;;9.80;8.90;;;17.00;99.90;;;;;;4936259;29;20466;-73
2021/05/15 11:01:12;;;;;;;10.00;9.10;;;17.30;99.90;;;;;;4934927;29;20500;-74
2021/05/15 11:03:39;;;;;;;10.80;9.10;;;17.40;99.90;;;;;;4935499;29;20482;-74
2021/05/15 11:06:17;;;;;;;9.50;8.57;;;17.30;99.90;;;;;;4935763;29;20465;-73
2021/05/15 11:09:00;;;;;;;11.07;9.97;;;17.40;99.90;;;;;;4936231;29;20985;-73
2021/05/15 11:11:38;;;;;;;10.17;9.17;;;17.30;99.90;;;;;;4933266;29;20498;-74
2021/05/15 11:14:19;;;;;;;10.70;9.67;;;17.00;99.90;;;;;;4935885;29;20500;-73
2021/05/15 11:16:46;;;;;;;10.60;9.70;;;17.10;99.90;;;;;;4935676;29;20954;-73
2021/05/15 11:19:14;;;;;;;9.90;9.10;;;16.90;99.90;;;;;;4935997;29;21024;-73
2021/05/15 11:21:40;;;;;;;9.83;8.57;;;16.80;99.90;;;;;;4935428;29;20496;-74
2021/05/15 11:24:09;;;;;;;11.73;10.10;;;16.80;99.90;;;;;;4934477;29;20497;-74
2021/05/15 11:26:38;;;;;;;12.37;11.17;;;16.60;99.90;;;;;;4930430;29;20522;-74
2021/05/15 11:29:06;;;;;;;11.50;10.40;;;16.70;99.90;;;;;;4917767;29;20478;-74
2021/05/15 11:31:38;;;;;;;9.43;8.63;;;16.90;99.90;;;;;;4935737;29;20489;-74
2021/05/15 11:34:14;;;;;;;9.33;8.53;;;17.30;99.90;;;;;;4935310;29;20540;-74
2021/05/15 11:36:41;;;;;;;9.73;8.93;;;17.50;99.90;;;;;;4935374;29;20469;-74
2021/05/15 11:39:10;;;;;;;9.90;8.90;;;17.50;99.90;;;;;;4934871;29;20477;-74
2021/05/15 11:41:37;;;;;;;9.33;8.53;;;17.30;99.90;;;;;;4935549;29;20496;-74
2021/05/15 11:44:04;;;;;;;10.00;9.20;;;17.10;99.90;;;;;;4933998;29;20579;-73
2021/05/15 11:46:30;;;;;;;8.50;7.80;;;17.10;99.90;;;;;;4935310;29;20461;-74
2021/05/15 11:48:56;;;;;;;8.10;7.50;;;17.00;99.90;;;;;;4935511;29;20483;-74
2021/05/15 11:51:24;;;;;;;8.40;7.80;;;16.90;99.90;;;;;;4935727;29;20542;-75
2021/05/15 11:53:51;;;;;;;9.13;8.23;;;17.00;99.90;;;;;;4935356;29;20461;-74
2021/05/15 11:56:19;;;;;;;9.33;8.57;;;17.10;99.90;;;;;;4935204;29;20465;-75
2021/05/15 11:58:46;;;;;;;7.00;6.40;;;17.10;99.90;;;;;;4935795;29;20997;-74
2021/05/15 12:01:17;;;;;;;10.87;7.13;;;17.00;99.90;;;;;;4935645;29;20493;-74
2021/05/15 12:03:43;;;;;;;8.47;7.77;;;17.00;99.90;;;;;;4936308;29;20760;-74
2021/05/15 12:06:14;;;;;;;8.50;7.63;;;17.30;99.90;;;;;;4934964;29;20485;-74
2021/05/15 12:08:41;;;;;;;8.00;7.20;;;17.40;99.90;;;;;;4936363;29;20492;-73
2021/05/15 12:11:08;;;;;;;7.87;7.17;;;17.40;99.90;;;;;;4936036;29;20500;-73
2021/05/15 12:13:34;;;;;;;12.53;10.00;;;17.40;99.90;;;;;;4935135;29;20476;-73
2021/05/15 12:16:01;;;;;;;12.63;9.00;;;17.30;99.90;;;;;;4935782;29;20479;-74
2021/05/15 12:18:27;;;;;;;10.50;9.60;;;17.10;99.90;;;;;;4935305;29;20949;-74
2021/05/15 12:20:55;;;;;;;13.80;9.83;;;17.00;99.90;;;;;;4935352;29;20552;-74
2021/05/15 12:23:23;;;;;;;10.67;9.57;;;16.90;99.90;;;;;;4935043;29;20557;-74
2021/05/15 12:25:58;;;;;;;10.40;9.40;;;16.80;99.90;;;;;;4935176;29;20500;-74
2021/05/15 12:28:26;;;;;;;12.90;9.67;;;16.70;99.90;;;;;;4934859;29;20496;-73
2021/05/15 12:30:53;;;;;;;11.13;8.50;;;16.60;99.90;;;;;;4934837;29;20482;-73
2021/05/15 12:33:21;;;;;;;10.53;8.33;;;16.50;99.90;;;;;;4933795;29;20485;-73
2021/05/15 12:36:00;;;;;;;9.73;8.73;;;16.40;99.90;;;;;;4934559;29;20975;-73
2021/05/15 12:38:27;;;;;;;9.87;8.90;;;16.20;99.90;;;;;;4938091;29;20469;-74
2021/05/15 12:40:54;;;;;;;10.30;8.50;;;16.00;99.90;;;;;;4938537;29;20993;-74
2021/05/15 12:43:24;;;;;;;9.17;8.40;;;15.90;99.90;;;;;;4935506;29;20488;-74
2021/05/15 12:45:55;;;;;;;11.47;10.27;;;15.80;99.90;;;;;;4934346;29;20497;-73
2021/05/15 12:48:35;;;;;;;11.40;10.20;;;15.70;99.90;;;;;;4937800;29;20466;-74
2021/05/15 12:51:02;;;;;;;11.93;10.73;;;15.60;99.90;;;;;;4934686;29;20490;-73
2021/05/15 12:53:28;;;;;;;8.57;7.57;;;15.40;99.90;;;;;;4935701;29;20480;-73
2021/05/15 12:55:55;;;;;;;4.83;4.47;;;15.10;99.90;;;;;;4938294;29;20465;-73
2021/05/15 12:58:24;;;;;;;3.42;3.33;;;14.60;99.90;;;;;;4928921;29;20485;-72
2021/05/15 13:00:58;;;;;;;4.20;3.03;;;13.80;99.90;;;;;;4937878;29;20237;-71
2021/05/15 13:03:25;;;;;;;4.03;3.65;;;13.20;99.90;;;;;;4936448;29;20214;-72
2021/05/15 13:05:52;;;;;;;2.00;1.95;;;12.90;99.90;;;;;;4932029;29;20301;-72
2021/05/15 13:08:27;;;;;;;1.42;1.42;;;12.40;99.90;;;;;;4938386;29;20217;-72
2021/05/15 13:10:53;;;;;;;1.48;1.48;;;11.90;99.90;;;;;;4933510;29;20603;-72
2021/05/15 13:13:20;;;;;;;2.10;2.10;;;11.50;99.90;;;;;;4937780;29;20689;-72
2021/05/15 13:15:47;;;;;;;1.75;1.65;;;11.30;99.90;;;;;;4937721;29;20297;-72
2021/05/15 13:18:16;;;;;;;1.50;1.50;;;11.30;99.90;;;;;;4937795;29;20689;-72
2021/05/15 13:20:42;;;;;;;2.00;1.90;;;11.20;99.90;;;;;;4937371;29;20268;-73
2021/05/15 13:23:09;;;;;;;1.95;1.95;;;11.20;99.90;;;;;;4937207;29;20325;-72
2021/05/15 13:25:35;;;;;;;2.30;2.20;;;11.10;99.90;;;;;;4932411;29;20241;-72
2021/05/15 13:28:02;;;;;;;2.13;2.00;;;11.20;99.90;;;;;;4937517;29;20206;-72
2021/05/15 13:30:28;;;;;;;2.35;2.35;;;11.20;99.90;;;;;;4923106;29;20226;-72
2021/05/15 13:32:55;;;;;;;2.60;2.60;;;11.30;99.90;;;;;;4929798;29;20202;-74
2021/05/15 13:35:21;;;;;;;2.85;2.72;;;11.30;99.90;;;;;;4936594;29;20573;-72
2021/05/15 13:37:47;;;;;;;2.25;2.15;;;11.30;99.90;;;;;;4922460;29;20324;-72
2021/05/15 13:40:14;;;;;;;2.30;2.20;;;11.30;99.90;;;;;;4936767;29;20646;-72
2021/05/15 13:42:40;;;;;;;2.90;2.80;;;11.20;99.90;;;;;;4933787;29;20203;-73
2021/05/15 13:45:08;;;;;;;2.35;2.25;;;11.20;99.90;;;;;;4936947;29;20236;-71
2021/05/15 13:47:34;;;;;;;2.53;2.42;;;11.10;99.90;;;;;;4936407;29;20577;-72
2021/05/15 13:50:01;;;;;;;3.03;2.83;;;11.20;99.90;;;;;;4926741;29;20210;-71
2021/05/15 13:52:27;;;;;;;3.35;3.10;;;11.30;99.90;;;;;;4937203;29;20226;-72
2021/05/15 13:54:54;;;;;;;3.05;2.95;;;11.40;99.90;;;;;;4936269;29;20210;-72
2021/05/15 13:57:20;;;;;;;3.70;3.53;;;11.50;99.90;;;;;;4935749;29;20257;-72
2021/05/15 13:59:47;;;;;;;3.50;3.30;;;11.60;99.90;;;;;;4935412;29;20342;-72
2021/05/15 14:02:13;;;;;;;2.97;2.78;;;11.80;99.90;;;;;;4936567;29;20423;-72
2021/05/15 14:04:40;;;;;;;3.08;2.92;;;11.90;99.90;;;;;;4936397;29;20810;-72
2021/05/15 14:07:07;;;;;;;2.15;2.05;;;11.90;99.90;;;;;;4937079;29;20261;-72
2021/05/15 14:09:33;;;;;;;2.90;2.70;;;11.90;99.90;;;;;;4936408;29;20213;-71
2021/05/15 14:11:59;;;;;;;3.10;2.90;;;12.00;99.90;;;;;;4934351;29;20242;-71
2021/05/15 14:14:25;;;;;;;3.10;3.00;;;12.20;99.90;;;;;;4927217;29;20637;-71
2021/05/15 14:16:51;;;;;;;2.97;2.80;;;12.40;99.90;;;;;;4923795;29;20206;-72
2021/05/15 14:19:17;;;;;;;3.50;3.25;;;12.60;99.90;;;;;;4921223;29;20598;-72
2021/05/15 14:21:44;;;;;;;2.95;2.85;;;12.80;99.90;;;;;;4923989;29;20226;-71
2021/05/15 14:24:11;;;;;;;2.97;2.87;;;13.10;99.90;;;;;;4934962;29;20234;-71
2021/05/15 14:26:37;;;;;;;2.10;2.00;;;13.40;99.90;;;;;;4935574;29;20873;-71
2021/05/15 14:29:03;;;;;;;2.27;2.23;;;13.60;99.90;;;;;;4936633;29;20469;-71
2021/05/15 14:31:30;;;;;;;2.53;2.43;;;14.00;99.90;;;;;;4936039;29;20488;-71
2021/05/15 14:33:58;;;;;;;2.00;2.00;;;14.30;99.90;;;;;;4936415;29;20472;-72
2021/05/15 14:36:25;;;;;;;1.73;1.63;;;14.40;99.90;;;;;;4935536;29;20553;-74
2021/05/15 14:38:51;;;;;;;2.10;2.00;;;14.50;99.90;;;;;;4936106;29;20469;-73
2021/05/15 14:41:18;;;;;;;1.90;1.90;;;14.50;99.90;;;;;;4935717;29;20489;-74
2021/05/15 14:43:44;;;;;;;1.50;1.50;;;14.50;99.90;;;;;;4935666;29;20461;-74
2021/05/15 14:46:10;;;;;;;1.87;1.80;;;14.50;99.90;;;;;;4935871;29;20974;-74
2021/05/15 14:48:36;;;;;;;1.27;1.27;;;14.50;99.90;;;;;;4935452;29;20503;-73
2021/05/15 14:51:05;;;;;;;1.83;1.73;;;14.60;99.90;;;;;;4935284;29;21017;-74
2021/05/15 14:53:32;;;;;;;1.80;1.70;;;14.80;99.90;;;;;;4935316;29;21234;-71
2021/05/15 14:56:01;;;;;;;10.00;9.30;;;15.00;99.90;;;;;;4935566;29;20454;-72
2021/05/15 14:58:28;;;;;;;1.30;1.30;;;15.10;99.90;;;;;;4936015;29;20474;-72
2021/05/15 15:00:55;;;;;;;1.07;1.07;;;15.20;99.90;;;;;;4935520;29;20493;-72
2021/05/15 15:03:21;;;;;;;1.80;1.80;;;15.30;99.90;;;;;;4935718;29;20465;-74
2021/05/15 15:05:48;;;;;;;1.70;1.70;;;15.30;99.90;;;;;;4935363;29;20477;-74
2021/05/15 15:08:14;;;;;;;2.10;2.10;;;15.40;99.90;;;;;;4934682;29;21368;-75
2021/05/15 15:10:40;;;;;;;4.00;3.90;;;15.60;99.90;;;;;;4935767;29;20553;-73
2021/05/15 15:13:06;;;;;;;1.00;1.00;;;15.80;99.90;;;;;;4935130;29;20529;-73
2021/05/15 15:15:33;;;;;;;1.40;1.40;;;15.90;99.90;;;;;;4935818;29;20468;-73
2021/05/15 15:17:59;;;;;;;21.33;19.53;;;15.90;99.90;;;;;;4934911;29;20541;-73
2021/05/15 15:20:25;;;;;;;1.87;1.87;;;16.10;99.90;;;;;;4935419;29;20473;-73
2021/05/15 15:22:52;;;;;;;1.20;1.20;;;16.10;99.90;;;;;;4934932;29;20560;-73
2021/05/15 15:25:18;;;;;;;1.17;1.17;;;16.20;99.90;;;;;;4934603;29;20481;-72
2021/05/15 15:27:44;;;;;;;1.13;1.13;;;16.30;99.90;;;;;;4935093;29;20480;-72
2021/05/15 15:30:11;;;;;;;1.30;1.30;;;16.30;99.90;;;;;;4935501;29;20468;-73
2021/05/15 15:32:38;;;;;;;21.57;19.00;;;16.10;99.90;;;;;;4935142;29;20471;-73
2021/05/15 15:35:06;;;;;;;1.40;1.40;;;16.10;99.90;;;;;;4935017;29;20457;-73
2021/05/15 15:37:32;;;;;;;11.83;10.73;;;16.00;99.90;;;;;;4935339;29;20480;-73
2021/05/15 15:39:59;;;;;;;0.83;0.83;;;15.90;99.90;;;;;;4934533;29;20473;-73
2021/05/15 15:42:25;;;;;;;1.03;1.03;;;15.70;99.90;;;;;;4934852;29;20490;-74
2021/05/15 15:44:51;;;;;;;1.13;1.13;;;15.50;99.90;;;;;;4934898;29;20561;-74
2021/05/15 15:47:18;;;;;;;1.17;1.10;;;15.30;99.90;;;;;;4927684;29;20845;-74
2021/05/15 15:49:45;;;;;;;1.10;1.10;;;15.20;99.90;;;;;;4934586;29;20617;-73
2021/05/15 15:52:11;;;;;;;1.23;1.23;;;15.00;99.90;;;;;;4932651;29;20498;-72
2021/05/15 15:54:38;;;;;;;1.47;1.40;;;14.90;99.90;;;;;;4934744;29;20573;-73
2021/05/15 15:57:06;;;;;;;1.23;1.23;;;14.80;99.90;;;;;;4934912;29;20489;-73
2021/05/15 15:59:32;;;;;;;1.17;1.17;;;14.90;99.90;;;;;;4935379;29;20458;-72
2021/05/15 16:02:00;;;;;;;1.40;1.40;;;15.00;99.90;;;;;;4934056;29;20496;-72
2021/05/15 16:04:26;;;;;;;1.37;1.37;;;15.10;99.90;;;;;;4914473;29;20494;-72
2021/05/15 16:06:53;;;;;;;1.30;1.30;;;15.20;99.90;;;;;;4926762;29;20493;-73
2021/05/15 16:09:19;;;;;;;1.33;1.33;;;15.30;99.90;;;;;;4931895;29;20528;-73
2021/05/15 16:11:45;;;;;;;1.43;1.43;;;15.30;99.90;;;;;;4930385;29;20489;-72
2021/05/15 16:14:12;;;;;;;1.60;1.60;;;15.40;99.90;;;;;;4928200;29;20489;-73
2021/05/15 16:16:38;;;;;;;2.33;1.60;;;15.40;99.90;;;;;;4931860;29;20470;-73
2021/05/15 16:19:04;;;;;;;1.30;1.30;;;15.40;99.90;;;;;;4931528;29;20474;-73
2021/05/15 16:21:30;;;;;;;6.80;6.50;;;15.40;99.90;;;;;;4924832;29;20490;-72
2021/05/15 16:23:57;;;;;;;1.30;1.30;;;15.40;99.90;;;;;;4918961;29;20915;-74
2021/05/15 16:26:24;;;;;;;2.00;2.00;;;15.40;99.90;;;;;;4933888;29;20528;-73
2021/05/15 16:28:50;;;;;;;2.73;2.73;;;15.50;99.90;;;;;;4934910;29;20465;-74
2021/05/15 16:31:18;;;;;;;1.53;1.40;;;15.50;99.90;;;;;;4933952;29;20485;-74
2021/05/15 16:33:44;;;;;;;1.67;1.63;;;15.50;99.90;;;;;;4934270;29;20477;-73
2021/05/15 16:36:10;;;;;;;2.07;2.00;;;15.30;99.90;;;;;;4934298;29;20469;-73
2021/05/15 16:38:36;;;;;;;1.80;1.80;;;15.20;99.90;;;;;;4934195;29;20632;-74